createdAt,value
2023-01-27T00:01:17.141Z,21.59
2023-01-27T00:03:43.997Z,21.68
2023-01-27T00:06:12.103Z,21.56
2023-01-27T00:08:39.161Z,21.68
2023-01-27T00:11:32.270Z,21.63
2023-01-27T00:13:58.933Z,21.67
2023-01-27T00:16:25.509Z,21.67
2023-01-27T00:18:52.435Z,21.60
2023-01-27T00:21:37.526Z,21.67
2023-01-27T00:24:22.967Z,21.55
2023-01-27T00:26:49.596Z,21.66
2023-01-27T00:29:18.217Z,21.65
2023-01-27T00:32:03.232Z,21.64
2023-01-27T00:34:30.021Z,21.46
2023-01-27T00:36:57.425Z,21.62
2023-01-27T00:39:25.034Z,21.63
2023-01-27T00:41:51.634Z,21.63
2023-01-27T00:44:18.169Z,21.59
2023-01-27T00:46:44.800Z,21.63
2023-01-27T00:49:13.364Z,21.64
2023-01-27T00:51:39.972Z,21.63
2023-01-27T00:54:06.801Z,21.63
2023-01-27T00:56:33.467Z,21.59
2023-01-27T00:59:00.302Z,21.62
2023-01-27T01:01:27.206Z,21.62
2023-01-27T01:03:54.545Z,21.52
2023-01-27T01:06:21.437Z,21.60
2023-01-27T01:08:48.731Z,21.57
2023-01-27T01:11:17.695Z,21.61
2023-01-27T01:13:45.201Z,21.50
2023-01-27T01:16:21.091Z,21.60
2023-01-27T01:18:48.677Z,21.58
2023-01-27T01:21:15.808Z,21.49
2023-01-27T01:23:45.282Z,21.57
2023-01-27T01:26:14.088Z,21.57
2023-01-27T01:28:40.808Z,21.50
2023-01-27T01:31:10.404Z,21.56
2023-01-27T01:33:37.941Z,21.52
2023-01-27T01:36:09.752Z,21.49
2023-01-27T01:38:36.930Z,21.45
2023-01-27T01:41:04.909Z,21.41
2023-01-27T01:43:31.611Z,21.54
2023-01-27T01:45:59.818Z,21.44
2023-01-27T01:48:32.877Z,21.53
2023-01-27T01:51:16.386Z,21.33
2023-01-27T01:54:07.786Z,21.51
2023-01-27T01:56:46.193Z,20.66
2023-01-27T01:59:23.576Z,21.43
2023-01-27T02:01:56.745Z,21.49
2023-01-27T02:04:31.915Z,21.48
2023-01-27T02:07:07.797Z,21.47
2023-01-27T02:09:34.782Z,21.41
2023-01-27T02:12:01.341Z,21.33
2023-01-27T02:14:28.171Z,21.38
2023-01-27T02:16:55.143Z,21.47
2023-01-27T02:19:39.409Z,21.45
2023-01-27T02:22:11.093Z,21.41
2023-01-27T02:24:44.768Z,21.34
2023-01-27T02:29:24.339Z,21.45
2023-01-27T02:31:51.133Z,21.41
2023-01-27T02:34:22.987Z,21.41
2023-01-27T02:37:07.437Z,21.40
2023-01-27T02:39:40.389Z,21.37
2023-01-27T02:42:08.910Z,21.38
2023-01-27T02:44:35.485Z,21.21
2023-01-27T02:47:03.823Z,21.19
2023-01-27T02:49:30.413Z,21.31
2023-01-27T02:51:57.053Z,21.32
2023-01-27T02:54:27.122Z,21.28
2023-01-27T02:56:54.177Z,21.28
2023-01-27T02:59:22.598Z,21.31
2023-01-27T03:01:49.317Z,21.21
2023-01-27T03:04:15.976Z,21.28
2023-01-27T03:06:43.727Z,21.27
2023-01-27T03:09:10.255Z,21.27
2023-01-27T03:11:56.306Z,21.13
2023-01-27T03:14:42.239Z,21.16
2023-01-27T03:17:27.785Z,21.17
2023-01-27T03:19:54.835Z,21.21
2023-01-27T03:22:21.413Z,21.20
2023-01-27T03:24:48.053Z,21.18
2023-01-27T03:27:14.677Z,21.14
2023-01-27T03:30:04.757Z,21.18
2023-01-27T03:32:32.267Z,21.15
2023-01-27T03:35:48.261Z,21.15
2023-01-27T03:38:37.811Z,21.15
2023-01-27T03:41:23.909Z,21.14
2023-01-27T03:44:09.174Z,21.13
2023-01-27T03:46:35.912Z,21.11
2023-01-27T03:51:27.617Z,21.01
2023-01-27T03:53:54.287Z,21.10
2023-01-27T03:56:22.259Z,21.09
2023-01-27T03:58:49.986Z,20.90
2023-01-27T04:01:20.540Z,21.07
2023-01-27T04:04:06.967Z,21.07
2023-01-27T04:06:54.903Z,21.06
2023-01-27T04:09:28.130Z,21.00
2023-01-27T04:11:56.450Z,21.02
2023-01-27T04:14:23.174Z,21.03
2023-01-27T04:16:54.601Z,21.02
2023-01-27T04:19:21.305Z,21.02
2023-01-27T04:21:48.382Z,21.01
2023-01-27T04:24:25.117Z,20.93
2023-01-27T04:26:57.445Z,21.00
2023-01-27T04:29:25.806Z,21.00
2023-01-27T04:31:52.755Z,20.98
2023-01-27T04:34:20.033Z,20.99
2023-01-27T04:36:47.716Z,20.92
2023-01-27T04:39:15.051Z,20.98
2023-01-27T04:41:42.166Z,20.95
2023-01-27T04:44:09.050Z,20.83
2023-01-27T04:46:35.976Z,20.82
2023-01-27T04:49:03.191Z,20.91
2023-01-27T04:51:29.786Z,20.92
2023-01-27T04:53:56.726Z,20.83
2023-01-27T04:56:27.783Z,20.93
2023-01-27T05:01:11.805Z,20.94
2023-01-27T05:03:38.383Z,20.87
2023-01-27T05:06:04.980Z,20.91
2023-01-27T05:08:31.796Z,20.85
2023-01-27T05:10:58.305Z,20.90
2023-01-27T05:13:24.869Z,20.88
2023-01-27T05:15:51.507Z,20.80
2023-01-27T05:18:18.147Z,20.89
2023-01-27T05:20:44.679Z,20.88
2023-01-27T05:23:29.963Z,20.74
2023-01-27T05:25:56.552Z,20.85
2023-01-27T05:28:23.064Z,20.86
2023-01-27T05:30:49.784Z,20.85
2023-01-27T05:33:16.316Z,20.80
2023-01-27T05:35:42.876Z,20.79
2023-01-27T05:38:09.469Z,20.84
2023-01-27T05:40:35.986Z,20.82
2023-01-27T05:43:02.524Z,20.82
2023-01-27T05:45:29.145Z,20.73
2023-01-27T05:47:55.717Z,20.81
2023-01-27T05:50:22.262Z,20.76
2023-01-27T05:52:48.872Z,20.81
2023-01-27T05:55:15.827Z,20.62
2023-01-27T05:57:42.447Z,20.75
2023-01-27T06:00:09.905Z,20.75
2023-01-27T06:02:37.239Z,20.78
2023-01-27T06:05:04.217Z,20.71
2023-01-27T06:09:50.345Z,20.76
2023-01-27T06:12:16.956Z,20.75
2023-01-27T06:14:43.636Z,20.75
2023-01-27T06:17:10.347Z,20.75
2023-01-27T06:19:36.861Z,20.74
2023-01-27T06:22:03.447Z,20.30
2023-01-27T06:24:30.188Z,20.53
2023-01-27T06:26:56.776Z,20.73
2023-01-27T06:29:23.271Z,20.72
2023-01-27T06:31:50.184Z,20.39
2023-01-27T06:34:16.737Z,20.67
2023-01-27T06:36:43.281Z,20.72
2023-01-27T06:39:09.840Z,20.72
2023-01-27T06:41:36.513Z,20.71
2023-01-27T06:44:03.031Z,20.62
2023-01-27T06:46:29.671Z,20.70
2023-01-27T06:48:56.235Z,20.70
2023-01-27T06:51:22.848Z,20.58
2023-01-27T06:53:49.393Z,20.63
2023-01-27T06:56:17.480Z,20.68
2023-01-27T06:58:44.272Z,20.67
2023-01-27T07:01:11.120Z,20.54
2023-01-27T07:03:37.787Z,20.61
2023-01-27T07:06:04.630Z,20.30
2023-01-27T07:08:31.409Z,20.68
2023-01-27T07:10:58.251Z,20.68
2023-01-27T07:13:24.922Z,20.68
2023-01-27T07:18:07.949Z,20.69
2023-01-27T07:20:34.836Z,20.69
2023-01-27T07:23:03.616Z,20.46
2023-01-27T07:25:31.621Z,20.36
2023-01-27T07:27:59.039Z,20.53
2023-01-27T07:30:26.972Z,20.66
2023-01-27T07:32:55.315Z,20.66
2023-01-27T07:35:23.226Z,20.50
2023-01-27T07:37:49.817Z,20.71
2023-01-27T07:40:16.805Z,20.70
2023-01-27T07:42:43.511Z,20.71
2023-01-27T07:45:10.587Z,20.70
2023-01-27T07:47:37.362Z,20.71
2023-01-27T07:50:04.286Z,20.43
2023-01-27T07:52:30.813Z,20.57
2023-01-27T07:54:57.511Z,20.60
2023-01-27T07:59:37.577Z,20.71
2023-01-27T08:02:04.375Z,20.69
2023-01-27T08:04:35.198Z,20.69
2023-01-27T08:07:07.569Z,20.69
2023-01-27T08:09:34.072Z,20.57
2023-01-27T08:12:00.712Z,20.66
2023-01-27T08:14:27.812Z,20.55
2023-01-27T08:16:54.509Z,20.64
2023-01-27T08:19:21.317Z,20.70
2023-01-27T08:21:47.960Z,20.64
2023-01-27T08:24:14.577Z,20.64
2023-01-27T08:26:41.332Z,20.69
2023-01-27T08:29:07.963Z,20.65
2023-01-27T08:31:34.658Z,20.46
2023-01-27T08:34:01.527Z,20.68
2023-01-27T08:36:28.469Z,20.62
2023-01-27T08:38:55.815Z,20.68
2023-01-27T08:41:27.645Z,20.34
2023-01-27T08:43:55.312Z,20.67
2023-01-27T08:46:22.093Z,20.38
2023-01-27T08:48:50.295Z,20.68
2023-01-27T08:51:16.918Z,20.67
2023-01-27T08:53:43.538Z,20.68
2023-01-27T08:56:14.719Z,20.67
2023-01-27T08:58:42.014Z,20.67
2023-01-27T09:01:09.226Z,20.70
2023-01-27T09:03:37.174Z,20.68
2023-01-27T09:06:04.833Z,20.72
2023-01-27T09:08:31.438Z,20.73
2023-01-27T09:11:01.122Z,20.73
2023-01-27T09:13:28.253Z,20.75
2023-01-27T09:15:54.941Z,20.76
2023-01-27T09:18:21.590Z,20.78
2023-01-27T09:20:51.901Z,20.76
2023-01-27T09:23:18.493Z,20.64
2023-01-27T09:25:45.066Z,20.76
2023-01-27T09:28:17.083Z,20.81
2023-01-27T09:30:46.931Z,20.76
2023-01-27T09:33:17.821Z,20.83
2023-01-27T09:35:55.420Z,20.83
2023-01-27T09:38:24.052Z,20.64
2023-01-27T09:41:23.019Z,20.87
2023-01-27T09:44:10.654Z,20.87
2023-01-27T09:46:55.492Z,20.89
2023-01-27T09:51:56.943Z,20.88
2023-01-27T09:54:34.654Z,20.83
2023-01-27T09:57:03.864Z,20.87
2023-01-27T09:59:57.762Z,20.88
2023-01-27T10:02:30.371Z,20.87
2023-01-27T10:05:27.719Z,20.88
2023-01-27T10:08:18.553Z,20.86
2023-01-27T10:11:09.396Z,20.86
2023-01-27T10:13:50.927Z,20.85
2023-01-27T10:16:42.339Z,20.85
2023-01-27T10:19:14.670Z,20.86
2023-01-27T10:21:47.136Z,20.85
2023-01-27T10:24:38.644Z,20.87
2023-01-27T10:27:14.405Z,20.87
2023-01-27T10:30:01.227Z,20.89
2023-01-27T10:32:37.872Z,20.89
2023-01-27T10:35:19.248Z,20.91
2023-01-27T10:38:10.750Z,20.91
2023-01-27T10:40:49.348Z,20.93
2023-01-27T10:43:26.253Z,20.92
2023-01-27T10:46:02.880Z,20.92
2023-01-27T10:48:48.590Z,20.96
2023-01-27T10:53:37.306Z,20.95
2023-01-27T10:56:04.169Z,20.97
2023-01-27T10:58:49.776Z,20.98
2023-01-27T11:01:23.047Z,20.98
2023-01-27T11:03:55.924Z,20.99
2023-01-27T11:06:27.312Z,20.96
2023-01-27T11:09:05.409Z,20.94
2023-01-27T11:11:44.316Z,21.01
2023-01-27T11:14:28.823Z,21.03
2023-01-27T11:17:15.883Z,20.98
2023-01-27T11:19:48.305Z,21.05
2023-01-27T11:22:20.754Z,21.06
2023-01-27T11:25:04.736Z,21.06
2023-01-27T11:27:56.969Z,21.06
2023-01-27T11:30:34.459Z,21.00
2023-01-27T11:33:13.790Z,20.93
2023-01-27T11:35:40.454Z,21.07
2023-01-27T11:38:15.607Z,20.99
2023-01-27T11:40:44.540Z,21.09
2023-01-27T11:43:17.215Z,21.08
2023-01-27T11:45:46.037Z,21.09
2023-01-27T11:48:17.000Z,21.08
2023-01-27T11:50:46.965Z,21.10
2023-01-27T11:53:16.507Z,21.10
2023-01-27T11:55:51.300Z,20.89
2023-01-27T11:58:43.227Z,21.10
2023-01-27T12:01:16.628Z,21.12
2023-01-27T12:03:47.771Z,21.08
2023-01-27T12:06:44.618Z,21.10
2023-01-27T12:09:29.909Z,21.12
2023-01-27T12:12:10.503Z,21.06
2023-01-27T12:14:37.476Z,21.10
2023-01-27T12:17:07.282Z,21.10
2023-01-27T12:19:49.136Z,21.11
2023-01-27T12:22:32.011Z,19.81
2023-01-27T12:25:03.356Z,21.10
2023-01-27T12:27:40.316Z,21.12
2023-01-27T12:30:18.052Z,21.10
2023-01-27T12:32:47.756Z,21.13
2023-01-27T12:35:19.713Z,21.12
2023-01-27T12:37:48.348Z,21.14
2023-01-27T12:40:28.946Z,21.13
2023-01-27T12:43:20.110Z,21.13
2023-01-27T12:46:04.975Z,21.03
2023-01-27T12:48:34.046Z,21.07
2023-01-27T12:51:13.660Z,20.99
2023-01-27T12:53:44.023Z,21.12
2023-01-27T12:56:20.768Z,21.12
2023-01-27T12:59:00.400Z,21.04
2023-01-27T13:01:28.830Z,21.13
2023-01-27T13:03:57.790Z,21.13
2023-01-27T13:06:43.602Z,21.09
2023-01-27T13:09:33.784Z,21.13
2023-01-27T13:12:25.000Z,21.15
2023-01-27T13:14:55.753Z,21.15
2023-01-27T13:17:38.330Z,21.15
2023-01-27T13:20:22.775Z,21.15
2023-01-27T13:23:15.296Z,21.14
2023-01-27T13:25:57.083Z,21.13
2023-01-27T13:28:46.064Z,21.13
2023-01-27T13:31:48.295Z,21.14
2023-01-27T13:34:38.779Z,21.15
2023-01-27T13:37:28.353Z,21.15
2023-01-27T13:40:07.313Z,21.16
2023-01-27T13:42:33.879Z,21.16
2023-01-27T13:45:05.998Z,21.17
2023-01-27T13:47:52.952Z,21.17
2023-01-27T13:50:23.427Z,21.18
2023-01-27T13:53:00.432Z,21.19
2023-01-27T13:56:01.316Z,21.19
2023-01-27T13:58:33.724Z,21.19
2023-01-27T14:01:00.309Z,21.18
2023-01-27T14:03:40.942Z,21.12
2023-01-27T14:06:17.497Z,21.20
2023-01-27T14:11:17.037Z,21.21
2023-01-27T14:14:07.184Z,21.20
2023-01-27T14:16:59.216Z,21.20
2023-01-27T14:19:46.758Z,21.20
2023-01-27T14:22:19.624Z,21.20
2023-01-27T14:24:50.205Z,21.17
2023-01-27T14:27:28.878Z,21.16
2023-01-27T14:30:21.102Z,21.16
2023-01-27T14:33:18.681Z,21.21
2023-01-27T14:35:54.464Z,21.19
2023-01-27T14:39:03.095Z,21.05
2023-01-27T14:42:01.923Z,21.22
2023-01-27T14:44:44.039Z,21.22
2023-01-27T14:47:53.680Z,21.22
2023-01-27T14:50:34.397Z,21.22
2023-01-27T14:53:19.746Z,21.22
2023-01-27T14:55:58.876Z,21.18
2023-01-27T14:58:54.903Z,21.23
2023-01-27T15:01:32.939Z,21.21
2023-01-27T15:04:27.361Z,21.23
2023-01-27T15:07:19.367Z,21.23
2023-01-27T15:09:58.098Z,21.22
2023-01-27T15:12:44.273Z,21.20
2023-01-27T15:15:19.949Z,21.22
2023-01-27T15:18:18.808Z,21.12
2023-01-27T15:21:36.129Z,21.23
2023-01-27T15:24:26.660Z,21.22
2023-01-27T15:26:54.307Z,21.21
2023-01-27T15:29:27.655Z,21.22
2023-01-27T15:32:10.552Z,21.21
2023-01-27T15:34:37.496Z,21.17
2023-01-27T15:37:19.502Z,21.23
2023-01-27T15:40:15.490Z,21.23
2023-01-27T15:42:52.517Z,21.23
2023-01-27T15:45:31.229Z,21.18
2023-01-27T15:48:00.905Z,21.23
2023-01-27T15:50:31.179Z,21.22
2023-01-27T15:53:12.698Z,21.22
2023-01-27T15:55:49.297Z,21.22
2023-01-27T15:58:37.926Z,21.24
2023-01-27T16:01:08.380Z,21.23
2023-01-27T16:03:38.832Z,21.23
2023-01-27T16:06:12.265Z,21.23
2023-01-27T16:08:43.299Z,21.23
2023-01-27T16:11:40.890Z,21.24
2023-01-27T16:14:17.097Z,21.23
2023-01-27T16:17:09.585Z,21.17
2023-01-27T16:19:48.705Z,21.21
2023-01-27T16:22:19.576Z,21.07
2023-01-27T16:24:56.329Z,21.23
2023-01-27T16:28:14.490Z,21.22
2023-01-27T16:30:56.881Z,21.23
2023-01-27T16:33:31.114Z,21.22
2023-01-27T16:36:06.273Z,21.23
2023-01-27T16:38:40.091Z,21.23
2023-01-27T16:41:21.328Z,21.17
2023-01-27T16:44:01.216Z,21.17
2023-01-27T16:46:41.701Z,21.18
2023-01-27T16:51:29.507Z,21.15
2023-01-27T16:53:58.587Z,21.13
2023-01-27T16:56:27.993Z,21.09
2023-01-27T16:59:00.633Z,21.10
2023-01-27T17:01:46.530Z,21.03
2023-01-27T17:04:21.053Z,21.08
2023-01-27T17:06:52.602Z,20.98
2023-01-27T17:09:24.858Z,21.06
2023-01-27T17:11:52.545Z,21.07
2023-01-27T17:14:30.553Z,21.04
2023-01-27T17:17:06.211Z,21.00
2023-01-27T17:19:36.873Z,21.03
2023-01-27T17:22:13.639Z,21.02
2023-01-27T17:24:50.117Z,21.02
2023-01-27T17:27:18.112Z,21.01
2023-01-27T17:29:47.638Z,20.99
2023-01-27T17:32:31.938Z,20.98
2023-01-27T17:35:02.113Z,20.96
2023-01-27T17:37:31.230Z,20.95
2023-01-27T17:39:59.997Z,20.92
2023-01-27T17:42:31.605Z,20.90
2023-01-27T17:45:31.925Z,20.95
2023-01-27T17:48:00.252Z,20.92
2023-01-27T17:50:38.089Z,20.92
2023-01-27T17:53:11.546Z,20.90
2023-01-27T17:55:39.166Z,20.95
2023-01-27T17:58:08.305Z,20.91
2023-01-27T18:00:38.610Z,20.98
2023-01-27T18:03:21.753Z,20.91
2023-01-27T18:05:51.359Z,20.96
2023-01-27T18:08:19.395Z,20.92
2023-01-27T18:10:46.425Z,20.96
2023-01-27T18:13:15.635Z,20.95
2023-01-27T18:16:18.713Z,20.93
2023-01-27T18:18:46.547Z,20.92
2023-01-27T18:21:19.190Z,20.75
2023-01-27T18:23:47.911Z,20.89
2023-01-27T18:26:17.350Z,20.88
2023-01-27T18:28:45.925Z,20.85
2023-01-27T18:31:17.297Z,20.82
2023-01-27T18:33:46.399Z,20.80
2023-01-27T18:36:24.457Z,20.82
2023-01-27T18:38:51.480Z,20.88
2023-01-27T18:41:27.378Z,20.88
2023-01-27T18:43:57.841Z,20.91
2023-01-27T18:48:42.732Z,20.93
2023-01-27T18:51:14.373Z,20.93
2023-01-27T18:53:42.650Z,20.93
2023-01-27T18:56:09.697Z,20.92
2023-01-27T18:58:37.017Z,20.92
2023-01-27T19:01:06.885Z,20.91
2023-01-27T19:03:38.896Z,20.66
2023-01-27T19:06:13.929Z,20.90
2023-01-27T19:08:40.692Z,20.82
2023-01-27T19:11:09.142Z,20.86
2023-01-27T19:13:35.773Z,20.88
2023-01-27T19:16:02.516Z,20.90
2023-01-27T19:18:34.419Z,20.91
2023-01-27T19:21:05.228Z,20.90
2023-01-27T19:23:32.716Z,20.95
2023-01-27T19:26:02.474Z,20.96
2023-01-27T19:28:31.791Z,20.99
2023-01-27T19:31:00.021Z,21.00
2023-01-27T19:33:28.287Z,21.00
2023-01-27T19:36:24.165Z,21.02
2023-01-27T19:39:01.221Z,21.03
2023-01-27T19:41:29.514Z,21.04
2023-01-27T19:43:56.227Z,20.97
2023-01-27T19:46:23.354Z,21.06
2023-01-27T19:48:52.180Z,21.02
2023-01-27T19:51:19.373Z,21.06
2023-01-27T19:53:46.570Z,21.03
2023-01-27T19:56:16.962Z,20.94
2023-01-27T19:58:47.144Z,21.05
2023-01-27T20:01:13.853Z,21.06
2023-01-27T20:03:40.625Z,21.04
2023-01-27T20:06:17.784Z,21.06
2023-01-27T20:08:45.017Z,21.06
2023-01-27T20:11:29.620Z,21.05
2023-01-27T20:13:56.706Z,21.04
2023-01-27T20:16:25.597Z,21.03
2023-01-27T20:18:53.721Z,20.97
2023-01-27T20:21:20.805Z,21.00
2023-01-27T20:23:48.769Z,20.88
2023-01-27T20:26:16.277Z,20.97
2023-01-27T20:28:46.178Z,20.91
2023-01-27T20:31:14.855Z,20.83
2023-01-27T20:33:44.002Z,20.88
2023-01-27T20:36:16.807Z,20.61
2023-01-27T20:38:44.002Z,20.75
2023-01-27T20:41:14.762Z,20.89
2023-01-27T20:43:41.974Z,20.89
2023-01-27T20:46:11.989Z,20.85
2023-01-27T20:48:41.501Z,20.71
2023-01-27T20:51:13.740Z,20.75
2023-01-27T20:53:45.238Z,20.79
2023-01-27T20:56:14.885Z,20.83
2023-01-27T20:58:42.485Z,20.72
2023-01-27T21:01:12.400Z,20.81
2023-01-27T21:03:40.231Z,20.80
2023-01-27T21:06:10.614Z,20.74
2023-01-27T21:08:37.642Z,20.49
2023-01-27T21:11:06.570Z,20.77
2023-01-27T21:13:33.789Z,20.60
2023-01-27T21:16:01.777Z,20.67
2023-01-27T21:18:29.220Z,20.55
2023-01-27T21:21:02.141Z,20.57
2023-01-27T21:23:29.338Z,20.67
2023-01-27T21:25:56.432Z,20.72
2023-01-27T21:28:26.117Z,20.62
2023-01-27T21:30:52.718Z,20.61
2023-01-27T21:33:19.524Z,20.70
2023-01-27T21:35:54.487Z,20.69
2023-01-27T21:38:21.255Z,20.68
2023-01-27T21:40:47.838Z,20.68
2023-01-27T21:43:32.947Z,20.67
2023-01-27T21:46:01.097Z,20.53
2023-01-27T21:48:27.722Z,20.51
2023-01-27T21:53:15.231Z,20.50
2023-01-27T21:55:45.813Z,20.59
2023-01-27T21:58:12.336Z,20.58
2023-01-27T22:00:39.819Z,20.43
2023-01-27T22:03:07.310Z,20.62
2023-01-27T22:05:37.500Z,20.42
2023-01-27T22:10:23.520Z,20.59
2023-01-27T22:12:51.197Z,20.55
2023-01-27T22:15:20.080Z,20.50
2023-01-27T22:17:47.020Z,20.58
2023-01-27T22:20:17.459Z,20.44
2023-01-27T22:22:45.170Z,20.56
2023-01-27T22:25:14.871Z,20.52
2023-01-27T22:27:43.062Z,20.56
2023-01-27T22:30:18.676Z,20.56
2023-01-27T22:32:48.366Z,20.53
2023-01-27T22:35:17.619Z,20.56
2023-01-27T22:37:45.894Z,20.55
2023-01-27T22:40:13.378Z,20.53
2023-01-27T22:42:40.142Z,20.56
2023-01-27T22:45:10.642Z,20.58
2023-01-27T22:47:37.384Z,20.54
2023-01-27T22:50:04.352Z,20.62
2023-01-27T22:52:30.999Z,20.64
2023-01-27T22:54:57.553Z,20.63
2023-01-27T22:57:30.066Z,20.68
2023-01-27T22:59:58.234Z,20.65
2023-01-27T23:04:57.054Z,20.74
2023-01-27T23:07:24.068Z,20.77
2023-01-27T23:09:50.704Z,20.77
2023-01-27T23:12:18.174Z,20.80
2023-01-27T23:14:44.910Z,20.77
2023-01-27T23:17:11.616Z,20.78
2023-01-27T23:19:38.212Z,20.84
2023-01-27T23:22:04.997Z,20.79
2023-01-27T23:24:31.817Z,20.65
2023-01-27T23:26:59.134Z,20.88
2023-01-27T23:29:26.829Z,20.90
2023-01-27T23:31:55.113Z,20.80
2023-01-27T23:34:21.892Z,20.70
2023-01-27T23:36:48.928Z,20.93
2023-01-27T23:39:16.371Z,20.89
2023-01-27T23:41:42.988Z,20.94
2023-01-27T23:44:11.200Z,20.96
2023-01-27T23:46:38.271Z,20.96
2023-01-27T23:49:04.834Z,20.94
2023-01-27T23:51:31.879Z,20.94
2023-01-27T23:53:58.474Z,20.97
2023-01-27T23:56:25.135Z,20.97
2023-01-27T23:58:51.734Z,20.86
